createdAt,value
2022-10-22T00:03:25.424Z,99820.53
2022-10-22T00:08:27.400Z,99814.41
2022-10-22T00:13:29.365Z,99813.19
2022-10-22T00:18:31.381Z,99812.53
2022-10-22T00:23:33.582Z,99804.97
2022-10-22T00:28:35.487Z,99818.03
2022-10-22T00:33:37.557Z,99804.28
2022-10-22T00:38:39.604Z,99801.50
2022-10-22T00:43:58.554Z,99800.50
2022-10-22T00:49:01.913Z,99792.75
2022-10-22T00:54:07.254Z,99798.84
2022-10-22T00:59:09.897Z,99793.41
2022-10-22T01:04:11.872Z,99792.75
2022-10-22T01:09:20.197Z,99797.81
2022-10-22T01:14:40.584Z,99804.84
2022-10-22T01:19:42.427Z,99803.13
2022-10-22T01:24:52.841Z,99799.94
2022-10-22T01:30:00.901Z,99797.13
2022-10-22T01:35:08.985Z,99807.00
2022-10-22T01:40:11.988Z,99808.28
2022-10-22T01:45:15.081Z,99804.44
2022-10-22T01:50:16.945Z,99807.38
2022-10-22T01:55:32.061Z,99807.66
2022-10-22T02:00:36.507Z,99814.75
2022-10-22T02:05:38.432Z,99822.69
2022-10-22T02:10:42.299Z,99821.41
2022-10-22T02:15:46.047Z,99816.28
2022-10-22T02:20:48.861Z,99820.41
2022-10-22T02:25:54.139Z,99825.94
2022-10-22T02:31:00.396Z,99827.44
2022-10-22T02:36:03.064Z,99833.56
2022-10-22T02:41:06.090Z,99829.63
2022-10-22T02:46:08.858Z,99824.84
2022-10-22T02:51:11.033Z,99842.38
2022-10-22T02:56:14.232Z,99835.13
2022-10-22T03:01:16.342Z,99840.09
2022-10-22T03:06:18.680Z,99842.28
2022-10-22T03:11:20.704Z,99840.34
2022-10-22T03:16:22.593Z,99837.53
2022-10-22T03:21:42.338Z,99832.75
2022-10-22T03:26:46.034Z,99832.97
2022-10-22T03:31:47.903Z,99838.94
2022-10-22T03:36:51.600Z,99838.13
2022-10-22T03:41:53.726Z,99830.50
2022-10-22T03:46:58.679Z,99832.47
2022-10-22T03:52:08.120Z,99834.94
2022-10-22T03:57:10.344Z,99838.72
2022-10-22T04:02:13.078Z,99828.84
2022-10-22T04:07:15.089Z,99829.50
2022-10-22T04:12:17.167Z,99840.59
2022-10-22T04:17:19.173Z,99838.28
2022-10-22T04:22:21.055Z,99835.06
2022-10-22T04:27:23.091Z,99838.81
2022-10-22T04:32:25.591Z,99846.59
2022-10-22T04:37:27.557Z,99850.81
2022-10-22T04:42:29.551Z,99842.28
2022-10-22T04:47:31.557Z,99843.13
2022-10-22T04:52:33.464Z,99848.13
2022-10-22T04:57:35.538Z,99852.28
2022-10-22T05:02:37.661Z,99852.94
2022-10-22T05:07:39.817Z,99856.88
2022-10-22T05:12:42.065Z,99853.56
2022-10-22T05:17:44.043Z,99848.94
2022-10-22T05:22:46.009Z,99856.44
2022-10-22T05:27:51.169Z,99844.97
2022-10-22T05:32:53.129Z,99862.22
2022-10-22T05:37:58.063Z,99866.63
2022-10-22T05:43:00.475Z,99867.06
2022-10-22T05:48:02.403Z,99865.63
2022-10-22T05:53:05.317Z,99866.84
2022-10-22T05:58:07.329Z,99872.66
2022-10-22T06:03:09.210Z,99872.19
2022-10-22T06:08:18.200Z,99876.50
2022-10-22T06:13:21.383Z,99875.19
2022-10-22T06:18:23.427Z,99869.44
2022-10-22T06:23:25.452Z,99872.47
2022-10-22T06:28:27.617Z,99877.13
2022-10-22T06:33:31.302Z,99878.63
2022-10-22T06:38:34.178Z,99882.09
2022-10-22T06:43:36.306Z,99892.03
2022-10-22T06:48:38.756Z,99887.41
2022-10-22T06:53:40.823Z,99889.41
2022-10-22T06:58:42.893Z,99871.19
2022-10-22T07:03:44.799Z,99894.06
2022-10-22T07:08:46.738Z,99903.31
2022-10-22T07:13:49.189Z,99900.50
2022-10-22T07:18:51.858Z,99900.84
2022-10-22T07:23:53.831Z,99898.34
2022-10-22T07:28:55.815Z,99900.16
2022-10-22T07:33:58.385Z,99902.78
2022-10-22T07:39:00.851Z,99907.06
2022-10-22T07:44:02.852Z,99905.72
2022-10-22T07:49:04.830Z,99896.72
2022-10-22T07:54:07.027Z,99908.09
2022-10-22T07:59:09.333Z,99910.63
2022-10-22T08:04:11.517Z,99907.38
2022-10-22T08:09:13.513Z,99910.16
2022-10-22T08:14:15.480Z,99900.66
2022-10-22T08:19:21.380Z,99898.47
2022-10-22T08:24:23.366Z,99901.66
2022-10-22T08:29:26.878Z,99908.75
2022-10-22T08:34:29.321Z,99907.09
2022-10-22T08:39:31.196Z,99909.81
2022-10-22T08:45:11.405Z,99911.72
2022-10-22T08:50:16.123Z,99903.94
2022-10-22T08:55:18.060Z,99902.13
2022-10-22T09:00:22.308Z,99896.53
2022-10-22T09:05:40.494Z,99888.75
2022-10-22T09:10:46.421Z,99907.97
2022-10-22T09:16:09.901Z,99895.88
2022-10-22T09:21:21.374Z,99901.66
2022-10-22T09:26:25.853Z,99901.63
2022-10-22T09:31:30.286Z,99883.44
2022-10-22T09:36:32.522Z,99887.63
2022-10-22T09:41:34.546Z,99886.75
2022-10-22T09:46:43.980Z,99893.81
2022-10-22T09:51:56.360Z,99893.97
2022-10-22T09:57:02.876Z,99890.34
2022-10-22T10:02:20.400Z,99885.00
2022-10-22T10:07:36.413Z,99884.00
2022-10-22T10:12:56.684Z,99885.50
2022-10-22T10:18:12.535Z,99881.19
2022-10-22T10:23:14.527Z,99872.97
2022-10-22T10:28:22.280Z,99872.63
2022-10-22T10:33:31.686Z,99872.47
2022-10-22T10:38:43.391Z,99870.72
2022-10-22T10:44:05.542Z,99868.47
2022-10-22T10:49:16.906Z,99868.81
2022-10-22T10:54:26.476Z,99861.22
2022-10-22T10:59:35.483Z,99864.69
2022-10-22T11:04:43.277Z,99853.59
2022-10-22T11:10:03.655Z,99856.88
2022-10-22T11:15:20.838Z,99851.72
2022-10-22T11:20:26.791Z,99853.22
2022-10-22T11:25:45.554Z,99842.97
2022-10-22T11:30:49.740Z,99841.16
2022-10-22T11:35:52.801Z,99844.97
2022-10-22T11:40:59.142Z,99829.88
2022-10-22T11:46:24.427Z,99832.88
2022-10-22T11:51:32.064Z,99831.41
2022-10-22T11:56:37.572Z,99829.91
2022-10-22T12:01:43.133Z,99829.75
2022-10-22T12:07:03.329Z,99822.28
2022-10-22T12:12:13.505Z,99818.66
2022-10-22T12:17:16.445Z,99811.69
2022-10-22T12:22:20.814Z,99809.69
2022-10-22T12:27:26.896Z,99804.84
2022-10-22T12:32:38.407Z,99804.69
2022-10-22T12:37:40.757Z,99795.22
2022-10-22T12:42:49.974Z,99796.72
2022-10-22T12:47:56.007Z,99791.59
2022-10-22T12:52:57.924Z,99789.75
2022-10-22T12:58:00.344Z,99789.09
2022-10-22T13:03:05.257Z,99791.59
2022-10-22T13:08:12.096Z,99786.31
2022-10-22T13:13:30.590Z,99783.84
2022-10-22T13:18:33.256Z,99779.84
2022-10-22T13:23:35.200Z,99779.38
2022-10-22T13:28:37.198Z,99778.22
2022-10-22T13:33:43.641Z,99776.38
2022-10-22T13:38:45.866Z,99777.25
2022-10-22T13:43:48.209Z,99781.84
2022-10-22T13:48:52.638Z,99775.72
2022-10-22T13:53:54.786Z,99772.06
2022-10-22T13:58:56.776Z,99766.28
2022-10-22T14:04:02.040Z,99759.47
2022-10-22T14:09:05.767Z,99746.59
2022-10-22T14:14:09.293Z,99752.88
2022-10-22T14:19:15.255Z,99754.53
2022-10-22T14:24:17.182Z,99758.84
2022-10-22T14:29:19.356Z,99762.31
2022-10-22T14:34:21.294Z,99763.13
2022-10-22T14:39:23.205Z,99769.59
2022-10-22T14:44:25.569Z,99766.78
2022-10-22T14:49:27.607Z,99762.94
2022-10-22T14:54:29.606Z,99759.31
2022-10-22T14:59:32.385Z,99764.44
2022-10-22T15:04:34.300Z,99763.47
2022-10-22T15:09:36.211Z,99773.72
2022-10-22T15:14:38.171Z,99766.78
2022-10-22T15:19:40.053Z,99765.28
2022-10-22T15:24:45.050Z,99760.47
2022-10-22T15:29:47.095Z,99760.81
2022-10-22T15:34:52.265Z,99762.31
2022-10-22T15:39:54.384Z,99763.13
2022-10-22T15:44:58.278Z,99763.78
2022-10-22T15:50:00.895Z,99764.63
2022-10-22T15:55:06.992Z,99768.25
2022-10-22T16:00:09.283Z,99775.34
2022-10-22T16:05:17.392Z,99776.53
2022-10-22T16:10:19.264Z,99775.19
2022-10-22T16:15:21.247Z,99774.38
2022-10-22T16:20:23.233Z,99773.88
2022-10-22T16:25:25.734Z,99769.72
2022-10-22T16:30:27.619Z,99779.63
2022-10-22T16:35:29.826Z,99776.00
2022-10-22T16:40:31.749Z,99776.50
2022-10-22T16:45:33.706Z,99778.00
2022-10-22T16:50:38.875Z,99778.69
2022-10-22T16:55:40.890Z,99764.47
2022-10-22T17:00:42.964Z,99762.97
2022-10-22T17:05:44.950Z,99763.44
2022-10-22T17:10:47.010Z,99752.34
2022-10-22T17:15:48.978Z,99747.72
2022-10-22T17:20:50.967Z,99745.91
2022-10-22T17:25:58.190Z,99748.38
2022-10-22T17:31:07.754Z,99738.31
2022-10-22T17:36:11.995Z,99730.38
2022-10-22T17:41:17.615Z,99725.72
2022-10-22T17:46:20.627Z,99721.72
2022-10-22T17:51:23.538Z,99716.44
2022-10-22T17:56:26.841Z,99726.19
2022-10-22T18:01:30.091Z,99713.16
2022-10-22T18:06:32.557Z,99711.34
2022-10-22T18:11:36.164Z,99701.22
2022-10-22T18:16:38.143Z,99708.84
2022-10-22T18:21:40.120Z,99694.28
2022-10-22T18:26:42.510Z,99696.94
2022-10-22T18:31:44.910Z,99689.97
2022-10-22T18:36:46.798Z,99686.66
2022-10-22T18:41:48.740Z,99687.34
2022-10-22T18:46:50.962Z,99684.38
2022-10-22T18:51:53.129Z,99681.38
2022-10-22T18:57:00.628Z,99676.91
2022-10-22T19:02:05.271Z,99672.44
2022-10-22T19:12:15.061Z,99672.13
2022-10-22T19:17:17.009Z,99669.97
2022-10-22T19:22:19.015Z,99680.03
2022-10-22T19:27:21.100Z,99662.50
2022-10-22T19:32:24.416Z,99668.28
2022-10-22T19:37:28.435Z,99662.66
2022-10-22T19:42:30.368Z,99667.81
2022-10-22T19:47:32.415Z,99676.06
2022-10-22T19:52:34.422Z,99681.50
2022-10-22T19:57:37.623Z,99680.38
2022-10-22T20:02:41.517Z,99683.84
2022-10-22T20:07:43.762Z,99678.38
2022-10-22T20:12:45.890Z,99669.09
2022-10-22T20:17:48.048Z,99670.25
2022-10-22T20:22:50.004Z,99669.09
2022-10-22T20:27:51.934Z,99662.50
2022-10-22T20:32:53.860Z,99661.19
2022-10-22T20:37:55.805Z,99662.34
2022-10-22T20:43:01.373Z,99658.53
2022-10-22T20:48:04.053Z,99648.63
2022-10-22T20:53:06.147Z,99649.94
2022-10-22T20:58:08.105Z,99644.00
2022-10-22T21:03:10.251Z,99645.13
2022-10-22T21:08:17.356Z,99652.25
2022-10-22T21:13:19.591Z,99642.66
2022-10-22T21:18:21.505Z,99645.81
2022-10-22T21:23:23.435Z,99637.69
2022-10-22T21:28:25.957Z,99640.34
2022-10-22T21:33:27.923Z,99626.94
2022-10-22T21:38:29.986Z,99623.31
2022-10-22T21:43:31.980Z,99626.13
2022-10-22T21:48:34.113Z,99619.34
2022-10-22T21:53:36.711Z,99612.38
2022-10-22T21:58:38.657Z,99596.19
2022-10-22T22:03:45.525Z,99598.00
2022-10-22T22:08:48.446Z,99591.06
2022-10-22T22:13:51.200Z,99587.09
2022-10-22T22:18:53.332Z,99577.50
2022-10-22T22:23:55.421Z,99577.34
2022-10-22T22:29:00.292Z,99579.00
2022-10-22T22:34:03.319Z,99572.22
2022-10-22T22:39:06.339Z,99576.00
2022-10-22T22:44:08.292Z,99564.28
2022-10-22T22:49:10.433Z,99567.25
2022-10-22T22:54:12.439Z,99556.19
2022-10-22T22:59:14.383Z,99553.72
2022-10-22T23:04:19.352Z,99540.97
2022-10-22T23:14:28.028Z,99527.75
2022-10-22T23:19:29.983Z,99522.47
2022-10-22T23:24:31.889Z,99517.69
2022-10-22T23:29:35.876Z,99514.69
2022-10-22T23:34:37.893Z,99516.16
2022-10-22T23:39:39.849Z,99511.03
2022-10-22T23:44:41.867Z,99499.00
2022-10-22T23:49:43.839Z,99496.16
2022-10-22T23:54:45.810Z,99489.25
2022-10-22T23:59:47.794Z,99482.78
